createdAt,value
2023-01-02T00:00:51.981Z,6.60
2023-01-02T00:03:18.763Z,6.50
2023-01-02T00:05:45.449Z,6.40
2023-01-02T00:08:12.023Z,6.40
2023-01-02T00:10:38.591Z,6.30
2023-01-02T00:13:05.141Z,6.30
2023-01-02T00:15:31.711Z,6.30
2023-01-02T00:17:58.319Z,6.20
2023-01-02T00:20:25.029Z,6.20
2023-01-02T00:22:51.569Z,6.20
2023-01-02T00:25:18.282Z,6.20
2023-01-02T00:27:44.829Z,6.20
2023-01-02T00:30:12.141Z,6.20
2023-01-02T00:32:38.658Z,6.20
2023-01-02T00:35:05.733Z,6.20
2023-01-02T00:37:32.277Z,6.10
2023-01-02T00:39:58.863Z,6.10
2023-01-02T00:42:25.420Z,6.10
2023-01-02T00:44:52.010Z,6.00
2023-01-02T00:47:18.566Z,6.00
2023-01-02T00:49:45.140Z,6.00
2023-01-02T00:52:11.687Z,6.00
2023-01-02T00:54:38.248Z,5.90
2023-01-02T00:57:04.794Z,5.90
2023-01-02T00:59:31.405Z,5.80
2023-01-02T01:01:58.065Z,5.90
2023-01-02T01:04:24.748Z,5.80
2023-01-02T01:06:51.325Z,5.80
2023-01-02T01:09:17.882Z,5.80
2023-01-02T01:11:44.435Z,5.80
2023-01-02T01:14:11.049Z,5.80
2023-01-02T01:16:37.680Z,5.80
2023-01-02T01:19:04.273Z,5.80
2023-01-02T01:21:30.836Z,5.70
2023-01-02T01:23:57.398Z,5.70
2023-01-02T01:26:24.031Z,5.70
2023-01-02T01:28:54.862Z,5.70
2023-01-02T01:31:22.436Z,5.70
2023-01-02T01:33:49.441Z,5.60
2023-01-02T01:36:18.685Z,5.70
2023-01-02T01:38:46.829Z,5.70
2023-01-02T01:41:15.666Z,5.60
2023-01-02T01:43:44.100Z,5.60
2023-01-02T01:46:19.698Z,5.60
2023-01-02T01:48:49.683Z,5.60
2023-01-02T01:51:18.315Z,5.50
2023-01-02T01:53:46.986Z,5.50
2023-01-02T01:56:14.476Z,5.40
2023-01-02T01:58:44.912Z,5.50
2023-01-02T02:01:13.946Z,5.50
2023-01-02T02:03:43.539Z,5.60
2023-01-02T02:06:10.714Z,5.50
2023-01-02T02:09:03.495Z,5.50
2023-01-02T02:11:30.613Z,5.60
2023-01-02T02:14:00.152Z,5.60
2023-01-02T02:16:39.185Z,5.60
2023-01-02T02:19:27.423Z,5.60
2023-01-02T02:22:24.812Z,5.60
2023-01-02T02:25:16.037Z,5.60
2023-01-02T02:28:05.965Z,5.60
2023-01-02T02:30:50.759Z,5.50
2023-01-02T02:33:39.303Z,5.50
2023-01-02T02:36:21.679Z,5.50
2023-01-02T02:39:21.346Z,5.40
2023-01-02T02:42:00.457Z,5.40
2023-01-02T02:44:59.898Z,5.40
2023-01-02T02:47:49.161Z,5.40
2023-01-02T02:50:41.923Z,5.40
2023-01-02T02:53:22.651Z,5.30
2023-01-02T02:55:53.128Z,5.30
2023-01-02T02:58:21.521Z,5.30
2023-01-02T03:00:48.243Z,5.30
2023-01-02T03:03:17.394Z,5.30
2023-01-02T03:05:55.082Z,5.40
2023-01-02T03:08:35.850Z,5.40
2023-01-02T03:11:03.338Z,5.40
2023-01-02T03:14:06.177Z,5.40
2023-01-02T03:16:35.513Z,5.40
2023-01-02T03:19:20.236Z,5.30
2023-01-02T03:22:27.432Z,5.40
2023-01-02T03:24:56.277Z,5.40
2023-01-02T03:27:27.809Z,5.40
2023-01-02T03:30:05.623Z,5.40
2023-01-02T03:32:37.740Z,5.40
2023-01-02T03:35:10.455Z,5.50
2023-01-02T03:37:42.176Z,5.40
2023-01-02T03:40:15.680Z,5.40
2023-01-02T03:42:49.846Z,5.40
2023-01-02T03:45:21.715Z,5.30
2023-01-02T03:48:00.511Z,5.40
2023-01-02T03:50:36.429Z,5.30
2023-01-02T03:53:03.164Z,5.30
2023-01-02T03:55:33.326Z,5.30
2023-01-02T03:58:43.977Z,5.30
2023-01-02T04:01:38.497Z,5.30
2023-01-02T04:04:14.554Z,5.20
2023-01-02T04:06:46.125Z,5.20
2023-01-02T04:09:21.826Z,5.20
2023-01-02T04:11:55.582Z,5.10
2023-01-02T04:14:31.845Z,5.10
2023-01-02T04:17:00.943Z,5.10
2023-01-02T04:19:33.541Z,5.00
2023-01-02T04:22:06.104Z,5.00
2023-01-02T04:24:38.809Z,5.10
2023-01-02T04:27:14.233Z,5.00
2023-01-02T04:29:41.233Z,5.00
2023-01-02T04:32:20.230Z,4.90
2023-01-02T04:34:48.157Z,4.90
2023-01-02T04:37:36.507Z,4.90
2023-01-02T04:40:09.661Z,4.90
2023-01-02T04:42:36.266Z,4.90
2023-01-02T04:45:02.966Z,4.90
2023-01-02T04:47:29.543Z,4.90
2023-01-02T04:49:56.096Z,4.80
2023-01-02T04:52:22.655Z,4.90
2023-01-02T04:54:49.261Z,4.80
2023-01-02T04:57:15.875Z,4.80
2023-01-02T04:59:42.419Z,4.70
2023-01-02T05:02:09.083Z,4.80
2023-01-02T05:04:35.720Z,4.80
2023-01-02T05:07:03.144Z,4.80
2023-01-02T05:09:29.680Z,4.80
2023-01-02T05:11:56.283Z,4.70
2023-01-02T05:14:23.084Z,4.70
2023-01-02T05:16:49.691Z,4.60
2023-01-02T05:19:16.353Z,4.60
2023-01-02T05:21:42.902Z,4.50
2023-01-02T05:24:09.454Z,4.50
2023-01-02T05:26:36.034Z,4.50
2023-01-02T05:29:02.656Z,4.40
2023-01-02T05:31:29.525Z,4.40
2023-01-02T05:33:58.731Z,4.50
2023-01-02T05:36:26.860Z,4.50
2023-01-02T05:38:53.489Z,4.50
2023-01-02T05:41:21.031Z,4.50
2023-01-02T05:43:47.927Z,4.50
2023-01-02T05:46:19.626Z,4.50
2023-01-02T05:48:47.011Z,4.50
2023-01-02T05:51:15.758Z,4.50
2023-01-02T05:53:42.685Z,4.50
2023-01-02T05:56:16.832Z,4.60
2023-01-02T05:58:45.724Z,4.50
2023-01-02T06:01:18.409Z,4.50
2023-01-02T06:03:49.809Z,4.50
2023-01-02T06:06:18.267Z,4.50
2023-01-02T06:08:45.021Z,4.50
2023-01-02T06:11:11.877Z,4.50
2023-01-02T06:13:39.241Z,4.50
2023-01-02T06:16:08.040Z,4.50
2023-01-02T06:18:36.279Z,4.40
2023-01-02T06:21:05.994Z,4.50
2023-01-02T06:23:32.823Z,4.40
2023-01-02T06:26:17.361Z,4.30
2023-01-02T06:28:45.907Z,4.30
2023-01-02T06:31:15.120Z,4.30
2023-01-02T06:33:42.659Z,4.30
2023-01-02T06:36:12.184Z,4.30
2023-01-02T06:38:39.106Z,4.30
2023-01-02T06:41:07.172Z,4.30
2023-01-02T06:43:40.732Z,4.20
2023-01-02T06:46:07.303Z,4.10
2023-01-02T06:48:34.765Z,4.20
2023-01-02T06:51:05.934Z,4.20
2023-01-02T06:53:38.199Z,4.30
2023-01-02T06:56:05.412Z,4.20
2023-01-02T06:58:34.260Z,4.20
2023-01-02T07:01:06.012Z,4.20
2023-01-02T07:03:32.855Z,4.10
2023-01-02T07:06:04.243Z,4.10
2023-01-02T07:08:31.893Z,4.10
2023-01-02T07:11:14.450Z,4.10
2023-01-02T07:13:42.682Z,4.20
2023-01-02T07:16:11.771Z,4.20
2023-01-02T07:18:39.007Z,4.20
2023-01-02T07:21:07.589Z,4.20
2023-01-02T07:23:34.360Z,4.20
2023-01-02T07:26:02.966Z,4.20
2023-01-02T07:28:29.954Z,4.20
2023-01-02T07:30:58.416Z,4.10
2023-01-02T07:33:25.342Z,4.20
2023-01-02T07:35:51.939Z,4.20
2023-01-02T07:38:18.489Z,4.20
2023-01-02T07:40:45.061Z,4.10
2023-01-02T07:43:11.644Z,4.10
2023-01-02T07:45:38.218Z,4.20
2023-01-02T07:48:05.028Z,4.20
2023-01-02T07:50:31.579Z,4.30
2023-01-02T07:52:58.128Z,4.40
2023-01-02T07:55:24.730Z,4.40
2023-01-02T07:57:51.323Z,4.40
2023-01-02T08:00:18.763Z,4.40
2023-01-02T08:02:45.674Z,4.40
2023-01-02T08:05:12.394Z,4.50
2023-01-02T08:07:44.621Z,4.50
2023-01-02T08:10:13.047Z,4.60
2023-01-02T08:12:39.946Z,4.60
2023-01-02T08:15:07.184Z,4.70
2023-01-02T08:17:33.829Z,4.70
2023-01-02T08:20:07.204Z,4.70
2023-01-02T08:22:35.094Z,4.80
2023-01-02T08:25:02.101Z,4.90
2023-01-02T08:27:28.763Z,5.00
2023-01-02T08:29:55.411Z,5.10
2023-01-02T08:32:22.029Z,5.10
2023-01-02T08:34:48.616Z,5.10
2023-01-02T08:37:15.293Z,5.10
2023-01-02T08:39:41.895Z,5.30
2023-01-02T08:42:08.903Z,5.30
2023-01-02T08:44:36.564Z,5.40
2023-01-02T08:47:03.554Z,5.40
2023-01-02T08:49:30.223Z,5.50
2023-01-02T08:51:56.965Z,5.60
2023-01-02T08:54:23.556Z,5.60
2023-01-02T08:56:50.132Z,5.70
2023-01-02T08:59:16.720Z,5.80
2023-01-02T09:01:43.441Z,5.90
2023-01-02T09:04:12.875Z,6.00
2023-01-02T09:06:40.740Z,6.10
2023-01-02T09:09:11.938Z,6.30
2023-01-02T09:11:43.527Z,6.40
2023-01-02T09:14:10.104Z,6.50
2023-01-02T09:16:36.718Z,6.60
2023-01-02T09:19:03.687Z,6.70
2023-01-02T09:21:30.516Z,6.80
2023-01-02T09:23:57.254Z,6.90
2023-01-02T09:26:23.916Z,7.10
2023-01-02T09:28:50.809Z,7.40
2023-01-02T09:31:18.598Z,7.60
2023-01-02T09:33:47.151Z,7.80
2023-01-02T09:36:16.644Z,7.80
2023-01-02T09:38:43.437Z,7.80
2023-01-02T09:41:26.251Z,7.90
2023-01-02T09:44:05.408Z,8.00
2023-01-02T09:46:39.030Z,8.10
2023-01-02T09:49:05.988Z,8.30
2023-01-02T09:51:34.387Z,8.30
2023-01-02T09:54:01.478Z,8.40
2023-01-02T09:56:34.439Z,8.40
2023-01-02T09:59:14.572Z,8.50
2023-01-02T10:02:07.234Z,8.50
2023-01-02T10:04:45.659Z,8.60
2023-01-02T10:07:27.216Z,8.70
2023-01-02T10:10:11.021Z,8.90
2023-01-02T10:12:44.773Z,9.00
2023-01-02T10:15:16.434Z,9.10
2023-01-02T10:17:48.420Z,9.20
2023-01-02T10:20:17.688Z,9.40
2023-01-02T10:22:59.296Z,9.40
2023-01-02T10:25:38.386Z,9.60
2023-01-02T10:28:41.777Z,9.70
2023-01-02T10:31:16.227Z,9.80
2023-01-02T10:33:48.833Z,10.10
2023-01-02T10:36:39.551Z,10.30
2023-01-02T10:39:09.358Z,10.50
2023-01-02T10:41:36.259Z,10.60
2023-01-02T10:44:11.153Z,10.70
2023-01-02T10:46:40.934Z,11.10
2023-01-02T10:49:09.627Z,11.40
2023-01-02T10:51:41.710Z,11.40
2023-01-02T10:54:09.613Z,11.50
2023-01-02T10:56:38.638Z,11.60
2023-01-02T10:59:23.790Z,11.60
2023-01-02T11:01:56.426Z,11.80
2023-01-02T11:04:28.631Z,12.00
2023-01-02T11:07:01.442Z,12.10
2023-01-02T11:09:31.298Z,12.10
2023-01-02T11:12:10.277Z,12.10
2023-01-02T11:14:38.184Z,12.20
2023-01-02T11:17:23.304Z,12.20
2023-01-02T11:19:52.352Z,12.30
2023-01-02T11:22:22.245Z,12.30
2023-01-02T11:25:00.382Z,12.30
2023-01-02T11:27:42.499Z,12.40
2023-01-02T11:30:33.101Z,12.40
2023-01-02T11:33:08.057Z,12.40
2023-01-02T11:35:48.384Z,12.40
2023-01-02T11:38:29.485Z,12.50
2023-01-02T11:41:01.621Z,12.40
2023-01-02T11:43:53.904Z,12.30
2023-01-02T11:46:33.717Z,12.30
2023-01-02T11:49:07.355Z,12.20
2023-01-02T11:51:38.197Z,12.20
2023-01-02T11:54:13.182Z,12.20
2023-01-02T11:56:45.296Z,12.50
2023-01-02T11:59:19.564Z,12.50
2023-01-02T12:02:09.789Z,12.50
2023-01-02T12:04:36.600Z,12.70
2023-01-02T12:07:28.191Z,12.70
2023-01-02T12:10:18.251Z,12.90
2023-01-02T12:12:59.864Z,12.90
2023-01-02T12:15:48.114Z,12.90
2023-01-02T12:18:46.876Z,12.90
2023-01-02T12:21:24.581Z,13.00
2023-01-02T12:24:09.197Z,13.00
2023-01-02T12:26:41.953Z,13.10
2023-01-02T12:29:46.587Z,13.20
2023-01-02T12:32:30.065Z,13.20
2023-01-02T12:35:27.614Z,13.10
2023-01-02T12:37:59.069Z,13.10
2023-01-02T12:41:07.783Z,13.10
2023-01-02T12:43:51.597Z,13.10
2023-01-02T12:46:33.419Z,13.00
2023-01-02T12:49:28.785Z,13.00
2023-01-02T12:51:58.099Z,13.00
2023-01-02T12:54:49.010Z,13.00
2023-01-02T12:57:29.854Z,13.00
2023-01-02T13:00:26.823Z,13.20
2023-01-02T13:03:22.809Z,13.20
2023-01-02T13:05:55.181Z,13.20
2023-01-02T13:08:27.265Z,13.10
2023-01-02T13:10:56.124Z,13.10
2023-01-02T13:13:29.296Z,13.00
2023-01-02T13:16:03.797Z,12.90
2023-01-02T13:19:01.762Z,12.90
2023-01-02T13:21:51.310Z,12.90
2023-01-02T13:24:25.062Z,12.80
2023-01-02T13:26:54.010Z,12.80
2023-01-02T13:29:26.863Z,12.70
2023-01-02T13:31:54.528Z,12.70
2023-01-02T13:34:30.665Z,12.70
2023-01-02T13:37:07.855Z,12.70
2023-01-02T13:39:40.459Z,12.60
2023-01-02T13:42:11.161Z,12.60
2023-01-02T13:44:41.594Z,12.60
2023-01-02T13:47:24.451Z,12.60
2023-01-02T13:50:11.512Z,12.50
2023-01-02T13:52:39.810Z,12.50
2023-01-02T13:55:24.960Z,12.50
2023-01-02T13:58:13.477Z,12.40
2023-01-02T14:00:56.618Z,12.40
2023-01-02T14:03:23.389Z,12.40
2023-01-02T14:06:03.885Z,12.40
2023-01-02T14:09:00.586Z,12.30
2023-01-02T14:11:56.714Z,12.30
2023-01-02T14:14:44.373Z,12.20
2023-01-02T14:17:54.755Z,12.20
2023-01-02T14:20:26.388Z,12.10
2023-01-02T14:23:00.230Z,12.00
2023-01-02T14:25:27.131Z,12.00
2023-01-02T14:27:57.046Z,11.90
2023-01-02T14:30:44.023Z,11.90
2023-01-02T14:33:21.844Z,11.80
2023-01-02T14:36:03.577Z,11.70
2023-01-02T14:38:50.724Z,11.60
2023-01-02T14:42:00.165Z,11.60
2023-01-02T14:44:26.842Z,11.50
2023-01-02T14:46:54.380Z,11.40
2023-01-02T14:49:25.412Z,11.40
2023-01-02T14:52:05.122Z,11.30
2023-01-02T14:54:55.843Z,11.30
2023-01-02T14:57:44.195Z,11.20
2023-01-02T15:00:25.721Z,11.20
2023-01-02T15:03:09.434Z,11.10
2023-01-02T15:05:42.019Z,11.10
2023-01-02T15:08:13.875Z,11.00
2023-01-02T15:11:15.926Z,11.00
2023-01-02T15:14:04.117Z,10.90
2023-01-02T15:16:36.095Z,10.90
2023-01-02T15:19:02.784Z,10.80
2023-01-02T15:21:31.138Z,10.80
2023-01-02T15:23:58.033Z,10.70
2023-01-02T15:26:34.907Z,10.70
2023-01-02T15:29:07.037Z,10.80
2023-01-02T15:31:39.801Z,11.00
2023-01-02T15:34:06.436Z,11.00
2023-01-02T15:36:37.414Z,11.00
2023-01-02T15:39:11.867Z,11.00
2023-01-02T15:41:48.891Z,11.00
2023-01-02T15:44:26.468Z,10.90
2023-01-02T15:46:53.427Z,10.90
2023-01-02T15:49:22.143Z,11.00
2023-01-02T15:51:49.099Z,11.00
2023-01-02T15:54:16.902Z,11.00
2023-01-02T15:56:43.696Z,11.00
2023-01-02T15:59:34.078Z,11.00
2023-01-02T16:02:00.856Z,11.00
2023-01-02T16:04:29.862Z,10.90
2023-01-02T16:06:58.300Z,10.90
2023-01-02T16:09:27.643Z,10.80
2023-01-02T16:12:00.008Z,10.80
2023-01-02T16:14:43.990Z,10.80
2023-01-02T16:17:22.435Z,10.80
2023-01-02T16:19:59.360Z,10.80
2023-01-02T16:23:03.233Z,10.80
2023-01-02T16:25:32.328Z,10.80
2023-01-02T16:27:58.861Z,10.90
2023-01-02T16:30:25.397Z,11.00
2023-01-02T16:32:52.776Z,11.00
2023-01-02T16:35:25.134Z,11.00
2023-01-02T16:38:18.527Z,11.00
2023-01-02T16:41:01.297Z,11.00
2023-01-02T16:43:29.499Z,11.00
2023-01-02T16:45:56.884Z,11.10
2023-01-02T16:48:24.865Z,11.20
2023-01-02T16:50:52.890Z,11.20
2023-01-02T16:53:30.001Z,11.30
2023-01-02T16:55:56.945Z,11.30
2023-01-02T16:58:23.862Z,11.30
2023-01-02T17:00:50.925Z,11.30
2023-01-02T17:03:23.396Z,11.30
2023-01-02T17:06:02.260Z,11.30
2023-01-02T17:08:34.547Z,11.30
2023-01-02T17:11:01.512Z,11.30
2023-01-02T17:13:29.424Z,11.20
2023-01-02T17:15:56.698Z,11.20
2023-01-02T17:18:23.853Z,11.10
2023-01-02T17:20:51.227Z,11.10
2023-01-02T17:23:19.020Z,11.10
2023-01-02T17:25:45.863Z,11.10
2023-01-02T17:28:13.056Z,11.10
2023-01-02T17:30:42.207Z,11.10
2023-01-02T17:33:08.819Z,11.00
2023-01-02T17:35:35.463Z,11.00
2023-01-02T17:38:02.216Z,11.00
2023-01-02T17:40:28.750Z,11.00
2023-01-02T17:42:55.377Z,11.10
2023-01-02T17:45:21.970Z,11.10
2023-01-02T17:48:02.271Z,11.10
2023-01-02T17:50:31.743Z,11.10
2023-01-02T17:52:58.376Z,11.10
2023-01-02T17:55:24.970Z,11.00
2023-01-02T17:57:51.566Z,11.00
2023-01-02T18:00:18.322Z,11.00
2023-01-02T18:02:45.162Z,10.90
2023-01-02T18:05:11.863Z,10.90
2023-01-02T18:07:38.413Z,10.90
2023-01-02T18:10:07.762Z,11.00
2023-01-02T18:12:36.419Z,10.90
2023-01-02T18:15:10.765Z,10.90
2023-01-02T18:17:37.452Z,10.90
2023-01-02T18:20:10.368Z,10.90
2023-01-02T18:22:39.001Z,10.90
2023-01-02T18:25:19.741Z,10.90
2023-01-02T18:27:47.508Z,10.90
2023-01-02T18:30:22.115Z,10.90
2023-01-02T18:32:50.067Z,10.80
2023-01-02T18:35:56.232Z,10.80
2023-01-02T18:38:36.180Z,10.70
2023-01-02T18:41:15.840Z,10.70
2023-01-02T18:43:44.202Z,10.80
2023-01-02T18:46:19.754Z,10.80
2023-01-02T18:48:46.793Z,10.80
2023-01-02T18:51:23.720Z,10.80
2023-01-02T18:53:52.776Z,10.90
2023-01-02T18:56:29.639Z,10.90
2023-01-02T18:59:27.383Z,10.90
2023-01-02T19:01:55.004Z,10.80
2023-01-02T19:04:28.437Z,10.90
2023-01-02T19:06:58.950Z,10.80
2023-01-02T19:09:33.237Z,10.80
2023-01-02T19:12:21.937Z,10.80
2023-01-02T19:14:50.575Z,10.80
2023-01-02T19:17:24.940Z,10.90
2023-01-02T19:19:53.206Z,10.80
2023-01-02T19:22:22.356Z,10.80
2023-01-02T19:24:49.353Z,10.80
2023-01-02T19:27:25.749Z,10.80
2023-01-02T19:29:53.412Z,10.90
2023-01-02T19:32:27.980Z,10.70
2023-01-02T19:34:59.755Z,10.70
2023-01-02T19:37:37.821Z,10.60
2023-01-02T19:40:25.753Z,10.60
2023-01-02T19:42:54.234Z,10.50
2023-01-02T19:45:26.009Z,10.50
2023-01-02T19:47:53.297Z,10.50
2023-01-02T19:50:22.571Z,10.50
2023-01-02T19:52:49.429Z,10.40
2023-01-02T19:55:16.824Z,10.40
2023-01-02T19:57:43.807Z,10.30
2023-01-02T20:00:12.828Z,10.30
2023-01-02T20:02:41.631Z,10.30
2023-01-02T20:05:09.408Z,10.30
2023-01-02T20:07:36.021Z,10.30
2023-01-02T20:10:02.692Z,10.30
2023-01-02T20:12:29.272Z,10.30
2023-01-02T20:15:06.852Z,10.20
2023-01-02T20:17:34.765Z,10.30
2023-01-02T20:20:01.804Z,10.30
2023-01-02T20:22:28.812Z,10.50
2023-01-02T20:24:56.739Z,10.50
2023-01-02T20:27:23.381Z,10.50
2023-01-02T20:29:50.579Z,10.50
2023-01-02T20:32:18.318Z,10.40
2023-01-02T20:34:44.882Z,10.40
2023-01-02T20:37:11.453Z,10.50
2023-01-02T20:39:38.116Z,10.50
2023-01-02T20:42:08.009Z,10.50
2023-01-02T20:44:39.897Z,10.50
2023-01-02T20:47:06.462Z,10.50
2023-01-02T20:49:33.033Z,10.50
2023-01-02T20:51:59.622Z,10.50
2023-01-02T20:54:26.911Z,10.40
2023-01-02T20:56:53.739Z,10.40
2023-01-02T20:59:21.256Z,10.40
2023-01-02T21:01:48.184Z,10.50
2023-01-02T21:04:18.641Z,10.50
2023-01-02T21:06:47.270Z,10.60
2023-01-02T21:09:13.828Z,10.60
2023-01-02T21:11:40.380Z,10.60
2023-01-02T21:14:06.928Z,10.60
2023-01-02T21:16:33.549Z,10.60
2023-01-02T21:19:00.236Z,10.70
2023-01-02T21:21:27.272Z,10.60
2023-01-02T21:23:54.021Z,10.60
2023-01-02T21:26:21.011Z,10.60
2023-01-02T21:28:48.006Z,10.60
2023-01-02T21:31:16.985Z,10.60
2023-01-02T21:33:43.922Z,10.60
2023-01-02T21:36:10.515Z,10.50
2023-01-02T21:38:37.482Z,10.60
2023-01-02T21:41:04.342Z,10.50
2023-01-02T21:43:30.910Z,10.50
2023-01-02T21:45:57.439Z,10.50
2023-01-02T21:48:24.001Z,10.50
2023-01-02T21:50:50.566Z,10.50
2023-01-02T21:53:17.164Z,10.50
2023-01-02T21:55:43.868Z,10.50
2023-01-02T21:58:13.366Z,10.50
2023-01-02T22:00:40.854Z,10.50
2023-01-02T22:03:07.505Z,10.50
2023-01-02T22:05:34.431Z,10.60
2023-01-02T22:08:01.159Z,10.60
2023-01-02T22:10:27.723Z,10.50
2023-01-02T22:12:54.324Z,10.60
2023-01-02T22:15:20.892Z,10.60
2023-01-02T22:17:47.463Z,10.60
2023-01-02T22:20:14.082Z,10.60
2023-01-02T22:22:40.711Z,10.60
2023-01-02T22:25:07.779Z,10.60
2023-01-02T22:27:34.549Z,10.70
2023-01-02T22:32:48.687Z,10.60
2023-01-02T22:35:15.345Z,10.60
2023-01-02T22:37:41.901Z,10.50
2023-01-02T22:40:09.101Z,10.50
2023-01-02T22:42:59.560Z,10.50
2023-01-02T22:45:28.673Z,10.40
2023-01-02T22:47:58.437Z,10.40
2023-01-02T22:50:29.246Z,10.40
2023-01-02T22:52:56.417Z,10.50
2023-01-02T22:55:23.769Z,10.40
2023-01-02T22:57:51.704Z,10.40
2023-01-02T23:00:20.865Z,10.40
2023-01-02T23:02:47.436Z,10.40
2023-01-02T23:05:17.098Z,10.40
2023-01-02T23:07:44.239Z,10.50
2023-01-02T23:10:11.259Z,10.50
2023-01-02T23:12:37.987Z,10.50
2023-01-02T23:15:05.978Z,10.50
2023-01-02T23:17:32.567Z,10.40
2023-01-02T23:19:59.115Z,10.40
2023-01-02T23:22:25.774Z,10.40
2023-01-02T23:24:52.339Z,10.50
2023-01-02T23:27:18.946Z,10.40
2023-01-02T23:29:45.544Z,10.40
2023-01-02T23:32:12.348Z,10.40
2023-01-02T23:34:38.975Z,10.40
2023-01-02T23:37:06.010Z,10.30
2023-01-02T23:39:34.094Z,10.30
2023-01-02T23:42:01.198Z,10.30
2023-01-02T23:44:27.798Z,10.30
2023-01-02T23:46:54.862Z,10.30
2023-01-02T23:49:22.192Z,10.30
2023-01-02T23:51:49.664Z,10.30
2023-01-02T23:54:17.150Z,10.30
2023-01-02T23:56:47.677Z,10.20
2023-01-02T23:59:22.130Z,10.30
